sensor_id;sensor_type;location;lat;lon;timestamp;P1;durP1;ratioP1;P2;durP2;ratioP2
47860;SDS011;33620;52.340;5.984;2023-11-18T00:00:26;52.53;;;25.67;;
47860;SDS011;33620;52.340;5.984;2023-11-18T00:02:51;57.35;;;26.42;;
47860;SDS011;33620;52.340;5.984;2023-11-18T00:05:17;53.22;;;24.88;;
47860;SDS011;33620;52.340;5.984;2023-11-18T00:07:42;49.75;;;25.27;;
47860;SDS011;33620;52.340;5.984;2023-11-18T00:10:08;46.35;;;25.55;;
47860;SDS011;33620;52.340;5.984;2023-11-18T00:12:35;46.92;;;25.33;;
47860;SDS011;33620;52.340;5.984;2023-11-18T00:15:04;44.35;;;23.38;;
47860;SDS011;33620;52.340;5.984;2023-11-18T00:17:30;48.55;;;25.95;;
47860;SDS011;33620;52.340;5.984;2023-11-18T00:19:56;49.50;;;25.05;;
47860;SDS011;33620;52.340;5.984;2023-11-18T00:22:21;49.90;;;25.85;;
47860;SDS011;33620;52.340;5.984;2023-11-18T00:24:47;53.25;;;26.33;;
47860;SDS011;33620;52.340;5.984;2023-11-18T00:27:12;53.55;;;25.60;;
47860;SDS011;33620;52.340;5.984;2023-11-18T00:29:39;52.75;;;26.67;;
47860;SDS011;33620;52.340;5.984;2023-11-18T00:32:06;48.75;;;25.38;;
47860;SDS011;33620;52.340;5.984;2023-11-18T00:34:32;52.95;;;25.42;;
47860;SDS011;33620;52.340;5.984;2023-11-18T00:36:58;53.88;;;27.33;;
47860;SDS011;33620;52.340;5.984;2023-11-18T00:39:24;51.25;;;25.75;;
47860;SDS011;33620;52.340;5.984;2023-11-18T00:41:49;49.42;;;25.85;;
47860;SDS011;33620;52.340;5.984;2023-11-18T00:44:15;57.10;;;28.85;;
47860;SDS011;33620;52.340;5.984;2023-11-18T00:46:40;51.60;;;25.80;;
47860;SDS011;33620;52.340;5.984;2023-11-18T00:49:06;51.85;;;26.33;;
47860;SDS011;33620;52.340;5.984;2023-11-18T00:51:31;54.53;;;26.30;;
47860;SDS011;33620;52.340;5.984;2023-11-18T00:53:57;48.88;;;26.35;;
47860;SDS011;33620;52.340;5.984;2023-11-18T00:56:25;46.55;;;24.40;;
47860;SDS011;33620;52.340;5.984;2023-11-18T00:58:51;50.35;;;25.98;;
47860;SDS011;33620;52.340;5.984;2023-11-18T01:01:17;55.95;;;28.83;;
47860;SDS011;33620;52.340;5.984;2023-11-18T01:03:46;51.33;;;26.73;;
47860;SDS011;33620;52.340;5.984;2023-11-18T01:06:12;50.70;;;25.35;;
47860;SDS011;33620;52.340;5.984;2023-11-18T01:08:37;61.25;;;31.35;;
47860;SDS011;33620;52.340;5.984;2023-11-18T01:11:03;50.10;;;26.45;;
47860;SDS011;33620;52.340;5.984;2023-11-18T01:13:29;54.75;;;28.50;;
47860;SDS011;33620;52.340;5.984;2023-11-18T01:15:56;49.50;;;26.70;;
47860;SDS011;33620;52.340;5.984;2023-11-18T01:18:21;55.33;;;28.73;;
47860;SDS011;33620;52.340;5.984;2023-11-18T01:20:46;61.53;;;29.10;;
47860;SDS011;33620;52.340;5.984;2023-11-18T01:23:12;58.00;;;28.25;;
47860;SDS011;33620;52.340;5.984;2023-11-18T01:25:37;59.47;;;30.17;;
47860;SDS011;33620;52.340;5.984;2023-11-18T01:28:04;55.65;;;28.50;;
47860;SDS011;33620;52.340;5.984;2023-11-18T01:30:30;62.65;;;30.38;;
47860;SDS011;33620;52.340;5.984;2023-11-18T01:32:56;62.08;;;31.70;;
47860;SDS011;33620;52.340;5.984;2023-11-18T01:35:21;64.93;;;31.20;;
47860;SDS011;33620;52.340;5.984;2023-11-18T01:37:50;60.20;;;30.35;;
47860;SDS011;33620;52.340;5.984;2023-11-18T01:40:17;63.63;;;32.08;;
47860;SDS011;33620;52.340;5.984;2023-11-18T01:42:45;52.75;;;28.65;;
47860;SDS011;33620;52.340;5.984;2023-11-18T01:45:11;59.70;;;30.88;;
47860;SDS011;33620;52.340;5.984;2023-11-18T01:47:37;62.00;;;31.77;;
47860;SDS011;33620;52.340;5.984;2023-11-18T01:50:05;64.90;;;32.15;;
47860;SDS011;33620;52.340;5.984;2023-11-18T01:52:32;66.28;;;31.08;;
47860;SDS011;33620;52.340;5.984;2023-11-18T01:54:58;63.03;;;31.98;;
47860;SDS011;33620;52.340;5.984;2023-11-18T01:57:24;63.78;;;31.77;;
47860;SDS011;33620;52.340;5.984;2023-11-18T01:59:52;73.35;;;33.50;;
47860;SDS011;33620;52.340;5.984;2023-11-18T02:02:20;62.00;;;32.05;;
47860;SDS011;33620;52.340;5.984;2023-11-18T02:04:46;60.95;;;30.73;;
47860;SDS011;33620;52.340;5.984;2023-11-18T02:07:12;57.72;;;30.38;;
47860;SDS011;33620;52.340;5.984;2023-11-18T02:09:40;63.78;;;32.25;;
47860;SDS011;33620;52.340;5.984;2023-11-18T02:15:16;66.78;;;32.55;;
47860;SDS011;33620;52.340;5.984;2023-11-18T02:17:43;63.30;;;31.55;;
47860;SDS011;33620;52.340;5.984;2023-11-18T02:20:10;60.55;;;31.95;;
47860;SDS011;33620;52.340;5.984;2023-11-18T02:22:43;60.10;;;29.95;;
47860;SDS011;33620;52.340;5.984;2023-11-18T02:25:12;63.60;;;31.55;;
47860;SDS011;33620;52.340;5.984;2023-11-18T02:27:43;53.20;;;29.83;;
47860;SDS011;33620;52.340;5.984;2023-11-18T02:30:10;59.85;;;31.30;;
47860;SDS011;33620;52.340;5.984;2023-11-18T02:32:55;59.30;;;31.98;;
47860;SDS011;33620;52.340;5.984;2023-11-18T02:35:31;58.10;;;30.02;;
47860;SDS011;33620;52.340;5.984;2023-11-18T02:38:02;57.40;;;30.85;;
47860;SDS011;33620;52.340;5.984;2023-11-18T02:40:34;58.42;;;31.13;;
47860;SDS011;33620;52.340;5.984;2023-11-18T02:43:03;49.22;;;26.67;;
47860;SDS011;33620;52.340;5.984;2023-11-18T02:45:32;55.75;;;27.88;;
47860;SDS011;33620;52.340;5.984;2023-11-18T02:48:00;54.22;;;29.58;;
47860;SDS011;33620;52.340;5.984;2023-11-18T02:50:26;54.90;;;28.98;;
47860;SDS011;33620;52.340;5.984;2023-11-18T02:52:55;49.92;;;28.35;;
47860;SDS011;33620;52.340;5.984;2023-11-18T02:55:20;72.25;;;33.42;;
47860;SDS011;33620;52.340;5.984;2023-11-18T02:57:47;63.17;;;33.50;;
47860;SDS011;33620;52.340;5.984;2023-11-18T03:00:13;67.50;;;33.30;;
47860;SDS011;33620;52.340;5.984;2023-11-18T03:02:44;62.53;;;31.75;;
47860;SDS011;33620;52.340;5.984;2023-11-18T03:05:12;59.90;;;31.58;;
47860;SDS011;33620;52.340;5.984;2023-11-18T03:07:38;75.60;;;35.55;;
47860;SDS011;33620;52.340;5.984;2023-11-18T03:10:04;64.85;;;32.25;;
47860;SDS011;33620;52.340;5.984;2023-11-18T03:12:35;56.55;;;30.17;;
47860;SDS011;33620;52.340;5.984;2023-11-18T03:15:01;77.88;;;35.92;;
47860;SDS011;33620;52.340;5.984;2023-11-18T03:17:27;75.43;;;34.17;;
47860;SDS011;33620;52.340;5.984;2023-11-18T03:19:53;81.63;;;38.78;;
47860;SDS011;33620;52.340;5.984;2023-11-18T03:22:18;89.22;;;40.33;;
47860;SDS011;33620;52.340;5.984;2023-11-18T03:24:44;82.43;;;37.85;;
47860;SDS011;33620;52.340;5.984;2023-11-18T03:27:09;88.93;;;39.88;;
47860;SDS011;33620;52.340;5.984;2023-11-18T03:29:34;83.95;;;38.38;;
47860;SDS011;33620;52.340;5.984;2023-11-18T03:32:01;103.88;;;40.97;;
47860;SDS011;33620;52.340;5.984;2023-11-18T03:34:26;96.05;;;41.05;;
47860;SDS011;33620;52.340;5.984;2023-11-18T03:36:52;80.45;;;39.20;;
47860;SDS011;33620;52.340;5.984;2023-11-18T03:39:17;94.53;;;41.58;;
47860;SDS011;33620;52.340;5.984;2023-11-18T03:41:43;93.90;;;41.40;;
47860;SDS011;33620;52.340;5.984;2023-11-18T03:44:10;135.25;;;47.40;;
47860;SDS011;33620;52.340;5.984;2023-11-18T03:46:36;124.80;;;47.70;;
47860;SDS011;33620;52.340;5.984;2023-11-18T03:49:02;114.18;;;44.83;;
47860;SDS011;33620;52.340;5.984;2023-11-18T03:51:28;113.38;;;43.50;;
47860;SDS011;33620;52.340;5.984;2023-11-18T03:53:53;115.00;;;42.50;;
47860;SDS011;33620;52.340;5.984;2023-11-18T03:56:19;127.72;;;45.78;;
47860;SDS011;33620;52.340;5.984;2023-11-18T03:58:45;109.60;;;43.50;;
47860;SDS011;33620;52.340;5.984;2023-11-18T04:01:20;126.88;;;42.53;;
47860;SDS011;33620;52.340;5.984;2023-11-18T04:03:51;170.30;;;50.83;;
47860;SDS011;33620;52.340;5.984;2023-11-18T04:06:17;191.65;;;53.15;;
47860;SDS011;33620;52.340;5.984;2023-11-18T04:08:43;140.10;;;46.85;;
47860;SDS011;33620;52.340;5.984;2023-11-18T04:11:10;123.53;;;43.25;;
47860;SDS011;33620;52.340;5.984;2023-11-18T04:13:35;109.75;;;44.35;;
47860;SDS011;33620;52.340;5.984;2023-11-18T04:16:01;174.18;;;50.42;;
47860;SDS011;33620;52.340;5.984;2023-11-18T04:18:26;137.60;;;48.13;;
47860;SDS011;33620;52.340;5.984;2023-11-18T04:20:51;118.40;;;43.17;;
47860;SDS011;33620;52.340;5.984;2023-11-18T04:23:17;123.03;;;48.40;;
47860;SDS011;33620;52.340;5.984;2023-11-18T04:25:43;158.45;;;49.58;;
47860;SDS011;33620;52.340;5.984;2023-11-18T04:28:08;133.80;;;47.67;;
47860;SDS011;33620;52.340;5.984;2023-11-18T04:30:35;162.07;;;49.65;;
47860;SDS011;33620;52.340;5.984;2023-11-18T04:33:00;132.38;;;47.97;;
47860;SDS011;33620;52.340;5.984;2023-11-18T04:35:26;172.93;;;53.75;;
47860;SDS011;33620;52.340;5.984;2023-11-18T04:37:51;142.25;;;49.05;;
47860;SDS011;33620;52.340;5.984;2023-11-18T04:40:16;112.45;;;46.13;;
47860;SDS011;33620;52.340;5.984;2023-11-18T04:42:42;182.68;;;51.95;;
47860;SDS011;33620;52.340;5.984;2023-11-18T04:45:07;122.25;;;46.05;;
47860;SDS011;33620;52.340;5.984;2023-11-18T04:47:34;152.63;;;50.40;;
47860;SDS011;33620;52.340;5.984;2023-11-18T04:50:01;137.35;;;51.03;;
47860;SDS011;33620;52.340;5.984;2023-11-18T04:52:28;133.45;;;47.45;;
47860;SDS011;33620;52.340;5.984;2023-11-18T04:54:53;152.48;;;50.53;;
47860;SDS011;33620;52.340;5.984;2023-11-18T04:57:19;146.68;;;49.88;;
47860;SDS011;33620;52.340;5.984;2023-11-18T04:59:44;119.20;;;49.03;;
47860;SDS011;33620;52.340;5.984;2023-11-18T05:02:10;121.50;;;49.22;;
47860;SDS011;33620;52.340;5.984;2023-11-18T05:04:35;156.57;;;54.80;;
47860;SDS011;33620;52.340;5.984;2023-11-18T05:07:01;139.32;;;52.55;;
47860;SDS011;33620;52.340;5.984;2023-11-18T05:09:26;134.38;;;49.25;;
47860;SDS011;33620;52.340;5.984;2023-11-18T05:11:51;98.22;;;43.80;;
47860;SDS011;33620;52.340;5.984;2023-11-18T05:14:17;141.43;;;51.25;;
47860;SDS011;33620;52.340;5.984;2023-11-18T05:16:43;121.93;;;49.60;;
47860;SDS011;33620;52.340;5.984;2023-11-18T05:19:09;145.52;;;51.47;;
47860;SDS011;33620;52.340;5.984;2023-11-18T05:21:34;147.02;;;52.15;;
47860;SDS011;33620;52.340;5.984;2023-11-18T05:23:59;121.65;;;49.10;;
47860;SDS011;33620;52.340;5.984;2023-11-18T05:26:25;145.18;;;55.47;;
47860;SDS011;33620;52.340;5.984;2023-11-18T05:28:51;129.05;;;49.20;;
47860;SDS011;33620;52.340;5.984;2023-11-18T05:31:17;141.30;;;49.80;;
47860;SDS011;33620;52.340;5.984;2023-11-18T05:33:43;132.63;;;50.20;;
47860;SDS011;33620;52.340;5.984;2023-11-18T05:36:16;135.30;;;50.45;;
47860;SDS011;33620;52.340;5.984;2023-11-18T05:38:42;116.80;;;45.65;;
47860;SDS011;33620;52.340;5.984;2023-11-18T05:41:08;124.80;;;47.90;;
47860;SDS011;33620;52.340;5.984;2023-11-18T05:43:41;115.75;;;44.95;;
47860;SDS011;33620;52.340;5.984;2023-11-18T05:46:09;129.05;;;47.85;;
47860;SDS011;33620;52.340;5.984;2023-11-18T05:48:49;86.05;;;39.97;;
47860;SDS011;33620;52.340;5.984;2023-11-18T05:51:18;133.73;;;50.65;;
47860;SDS011;33620;52.340;5.984;2023-11-18T05:53:45;140.50;;;50.05;;
47860;SDS011;33620;52.340;5.984;2023-11-18T05:56:14;96.75;;;43.92;;
47860;SDS011;33620;52.340;5.984;2023-11-18T05:58:41;130.93;;;47.80;;
47860;SDS011;33620;52.340;5.984;2023-11-18T06:01:08;170.30;;;54.55;;
47860;SDS011;33620;52.340;5.984;2023-11-18T06:03:36;169.27;;;55.50;;
47860;SDS011;33620;52.340;5.984;2023-11-18T06:06:04;186.02;;;55.20;;
47860;SDS011;33620;52.340;5.984;2023-11-18T06:08:31;190.40;;;58.08;;
47860;SDS011;33620;52.340;5.984;2023-11-18T06:10:57;151.55;;;52.88;;
47860;SDS011;33620;52.340;5.984;2023-11-18T06:13:23;131.68;;;50.13;;
47860;SDS011;33620;52.340;5.984;2023-11-18T06:15:48;167.60;;;53.25;;
47860;SDS011;33620;52.340;5.984;2023-11-18T06:18:16;137.38;;;50.65;;
47860;SDS011;33620;52.340;5.984;2023-11-18T06:20:43;128.95;;;51.00;;
47860;SDS011;33620;52.340;5.984;2023-11-18T06:23:08;114.57;;;47.55;;
47860;SDS011;33620;52.340;5.984;2023-11-18T06:25:34;151.55;;;51.53;;
47860;SDS011;33620;52.340;5.984;2023-11-18T06:28:00;147.38;;;51.13;;
47860;SDS011;33620;52.340;5.984;2023-11-18T06:30:25;117.65;;;47.72;;
47860;SDS011;33620;52.340;5.984;2023-11-18T06:32:51;105.30;;;47.65;;
47860;SDS011;33620;52.340;5.984;2023-11-18T06:35:16;159.50;;;53.75;;
47860;SDS011;33620;52.340;5.984;2023-11-18T06:37:42;100.53;;;44.00;;
47860;SDS011;33620;52.340;5.984;2023-11-18T06:40:07;101.68;;;46.50;;
47860;SDS011;33620;52.340;5.984;2023-11-18T06:42:41;114.88;;;46.28;;
47860;SDS011;33620;52.340;5.984;2023-11-18T06:45:07;84.85;;;40.47;;
47860;SDS011;33620;52.340;5.984;2023-11-18T06:47:34;87.57;;;41.25;;
47860;SDS011;33620;52.340;5.984;2023-11-18T06:50:03;88.85;;;41.17;;
47860;SDS011;33620;52.340;5.984;2023-11-18T06:52:29;136.80;;;48.80;;
47860;SDS011;33620;52.340;5.984;2023-11-18T06:54:54;102.70;;;44.58;;
47860;SDS011;33620;52.340;5.984;2023-11-18T06:57:20;94.85;;;41.47;;
47860;SDS011;33620;52.340;5.984;2023-11-18T06:59:46;119.55;;;47.78;;
47860;SDS011;33620;52.340;5.984;2023-11-18T07:02:12;114.90;;;47.05;;
47860;SDS011;33620;52.340;5.984;2023-11-18T07:04:37;104.25;;;47.70;;
47860;SDS011;33620;52.340;5.984;2023-11-18T07:07:03;115.45;;;46.67;;
47860;SDS011;33620;52.340;5.984;2023-11-18T07:09:28;95.28;;;44.13;;
47860;SDS011;33620;52.340;5.984;2023-11-18T07:11:54;116.72;;;47.33;;
47860;SDS011;33620;52.340;5.984;2023-11-18T07:14:21;79.18;;;38.42;;
47860;SDS011;33620;52.340;5.984;2023-11-18T07:16:47;102.82;;;46.08;;
47860;SDS011;33620;52.340;5.984;2023-11-18T07:19:12;75.78;;;38.65;;
47860;SDS011;33620;52.340;5.984;2023-11-18T07:21:48;107.47;;;45.55;;
47860;SDS011;33620;52.340;5.984;2023-11-18T07:24:14;87.15;;;43.00;;
47860;SDS011;33620;52.340;5.984;2023-11-18T07:26:40;82.57;;;39.95;;
47860;SDS011;33620;52.340;5.984;2023-11-18T07:29:05;78.63;;;40.28;;
47860;SDS011;33620;52.340;5.984;2023-11-18T07:31:33;89.88;;;42.42;;
47860;SDS011;33620;52.340;5.984;2023-11-18T07:34:01;123.05;;;48.90;;
47860;SDS011;33620;52.340;5.984;2023-11-18T07:36:27;84.78;;;41.42;;
47860;SDS011;33620;52.340;5.984;2023-11-18T07:38:53;102.90;;;45.75;;
47860;SDS011;33620;52.340;5.984;2023-11-18T07:41:18;99.43;;;45.97;;
47860;SDS011;33620;52.340;5.984;2023-11-18T07:43:51;86.90;;;43.30;;
47860;SDS011;33620;52.340;5.984;2023-11-18T07:46:21;99.30;;;44.60;;
47860;SDS011;33620;52.340;5.984;2023-11-18T07:48:50;96.72;;;47.15;;
47860;SDS011;33620;52.340;5.984;2023-11-18T07:51:17;82.13;;;38.97;;
47860;SDS011;33620;52.340;5.984;2023-11-18T07:53:42;85.90;;;42.47;;
47860;SDS011;33620;52.340;5.984;2023-11-18T07:56:08;83.55;;;42.38;;
47860;SDS011;33620;52.340;5.984;2023-11-18T07:58:36;88.22;;;44.65;;
47860;SDS011;33620;52.340;5.984;2023-11-18T08:01:02;74.85;;;40.05;;
47860;SDS011;33620;52.340;5.984;2023-11-18T08:03:29;74.20;;;40.30;;
47860;SDS011;33620;52.340;5.984;2023-11-18T08:05:56;88.15;;;43.40;;
47860;SDS011;33620;52.340;5.984;2023-11-18T08:08:22;89.63;;;44.22;;
47860;SDS011;33620;52.340;5.984;2023-11-18T08:10:48;85.65;;;41.70;;
47860;SDS011;33620;52.340;5.984;2023-11-18T08:13:13;96.28;;;44.38;;
47860;SDS011;33620;52.340;5.984;2023-11-18T08:15:39;75.40;;;39.72;;
47860;SDS011;33620;52.340;5.984;2023-11-18T08:18:06;71.43;;;38.28;;
47860;SDS011;33620;52.340;5.984;2023-11-18T08:20:32;78.90;;;40.63;;
47860;SDS011;33620;52.340;5.984;2023-11-18T08:22:58;74.43;;;38.75;;
47860;SDS011;33620;52.340;5.984;2023-11-18T08:25:24;76.40;;;38.15;;
47860;SDS011;33620;52.340;5.984;2023-11-18T08:27:50;60.47;;;33.97;;
47860;SDS011;33620;52.340;5.984;2023-11-18T08:30:16;59.53;;;33.75;;
47860;SDS011;33620;52.340;5.984;2023-11-18T08:32:43;61.97;;;34.05;;
47860;SDS011;33620;52.340;5.984;2023-11-18T08:35:09;70.75;;;37.65;;
47860;SDS011;33620;52.340;5.984;2023-11-18T08:37:38;64.80;;;35.00;;
47860;SDS011;33620;52.340;5.984;2023-11-18T08:40:03;60.25;;;31.65;;
47860;SDS011;33620;52.340;5.984;2023-11-18T08:42:31;66.53;;;34.78;;
47860;SDS011;33620;52.340;5.984;2023-11-18T08:44:58;67.07;;;32.55;;
47860;SDS011;33620;52.340;5.984;2023-11-18T08:47:25;69.80;;;34.60;;
47860;SDS011;33620;52.340;5.984;2023-11-18T08:49:50;60.17;;;31.33;;
47860;SDS011;33620;52.340;5.984;2023-11-18T08:52:15;63.42;;;32.75;;
47860;SDS011;33620;52.340;5.984;2023-11-18T08:54:42;60.60;;;31.17;;
47860;SDS011;33620;52.340;5.984;2023-11-18T08:57:28;64.20;;;32.97;;
47860;SDS011;33620;52.340;5.984;2023-11-18T09:00:13;66.00;;;33.00;;
47860;SDS011;33620;52.340;5.984;2023-11-18T09:03:01;64.32;;;32.78;;
47860;SDS011;33620;52.340;5.984;2023-11-18T09:05:27;55.85;;;29.42;;
47860;SDS011;33620;52.340;5.984;2023-11-18T09:07:56;57.67;;;28.75;;
47860;SDS011;33620;52.340;5.984;2023-11-18T09:10:22;60.42;;;31.75;;
47860;SDS011;33620;52.340;5.984;2023-11-18T09:12:49;58.90;;;31.23;;
47860;SDS011;33620;52.340;5.984;2023-11-18T09:15:14;66.68;;;31.13;;
47860;SDS011;33620;52.340;5.984;2023-11-18T09:17:47;65.43;;;31.83;;
47860;SDS011;33620;52.340;5.984;2023-11-18T09:20:13;58.03;;;29.25;;
47860;SDS011;33620;52.340;5.984;2023-11-18T09:22:43;59.45;;;30.40;;
47860;SDS011;33620;52.340;5.984;2023-11-18T09:25:09;63.53;;;30.73;;
47860;SDS011;33620;52.340;5.984;2023-11-18T09:27:35;64.30;;;31.95;;
47860;SDS011;33620;52.340;5.984;2023-11-18T09:30:01;64.93;;;31.27;;
47860;SDS011;33620;52.340;5.984;2023-11-18T09:32:27;66.13;;;31.90;;
47860;SDS011;33620;52.340;5.984;2023-11-18T09:34:53;57.05;;;29.30;;
47860;SDS011;33620;52.340;5.984;2023-11-18T09:37:18;62.25;;;29.75;;
47860;SDS011;33620;52.340;5.984;2023-11-18T09:39:43;60.80;;;31.23;;
47860;SDS011;33620;52.340;5.984;2023-11-18T09:42:10;65.78;;;30.95;;
47860;SDS011;33620;52.340;5.984;2023-11-18T09:44:39;66.35;;;32.33;;
47860;SDS011;33620;52.340;5.984;2023-11-18T09:47:07;60.25;;;27.52;;
47860;SDS011;33620;52.340;5.984;2023-11-18T09:49:37;60.50;;;30.95;;
47860;SDS011;33620;52.340;5.984;2023-11-18T09:52:09;65.20;;;30.15;;
47860;SDS011;33620;52.340;5.984;2023-11-18T09:57:31;60.60;;;29.25;;
47860;SDS011;33620;52.340;5.984;2023-11-18T10:00:06;55.55;;;27.45;;
47860;SDS011;33620;52.340;5.984;2023-11-18T10:02:50;61.83;;;28.77;;
47860;SDS011;33620;52.340;5.984;2023-11-18T10:05:16;57.90;;;26.95;;
47860;SDS011;33620;52.340;5.984;2023-11-18T10:07:46;57.85;;;28.85;;
47860;SDS011;33620;52.340;5.984;2023-11-18T10:10:15;58.50;;;26.92;;
47860;SDS011;33620;52.340;5.984;2023-11-18T10:12:41;60.92;;;27.15;;
47860;SDS011;33620;52.340;5.984;2023-11-18T10:15:14;56.17;;;25.88;;
47860;SDS011;33620;52.340;5.984;2023-11-18T10:17:44;60.20;;;28.77;;
47860;SDS011;33620;52.340;5.984;2023-11-18T10:20:20;60.42;;;28.30;;
47860;SDS011;33620;52.340;5.984;2023-11-18T10:22:50;61.08;;;27.40;;
47860;SDS011;33620;52.340;5.984;2023-11-18T10:25:31;58.85;;;28.02;;
47860;SDS011;33620;52.340;5.984;2023-11-18T10:27:59;53.47;;;25.13;;
47860;SDS011;33620;52.340;5.984;2023-11-18T10:30:27;57.83;;;25.85;;
47860;SDS011;33620;52.340;5.984;2023-11-18T10:32:57;55.67;;;26.00;;
47860;SDS011;33620;52.340;5.984;2023-11-18T10:35:31;52.47;;;24.23;;
47860;SDS011;33620;52.340;5.984;2023-11-18T10:38:03;56.67;;;25.02;;
47860;SDS011;33620;52.340;5.984;2023-11-18T10:40:32;48.88;;;22.73;;
47860;SDS011;33620;52.340;5.984;2023-11-18T10:43:02;57.15;;;24.33;;
47860;SDS011;33620;52.340;5.984;2023-11-18T10:45:34;48.28;;;22.77;;
47860;SDS011;33620;52.340;5.984;2023-11-18T10:48:04;54.70;;;24.45;;
47860;SDS011;33620;52.340;5.984;2023-11-18T10:50:31;50.50;;;23.70;;
47860;SDS011;33620;52.340;5.984;2023-11-18T10:52:57;50.35;;;23.20;;
47860;SDS011;33620;52.340;5.984;2023-11-18T10:55:40;55.30;;;23.30;;
47860;SDS011;33620;52.340;5.984;2023-11-18T10:58:06;48.70;;;20.80;;
47860;SDS011;33620;52.340;5.984;2023-11-18T11:00:50;48.10;;;22.17;;
47860;SDS011;33620;52.340;5.984;2023-11-18T11:03:20;44.58;;;21.27;;
47860;SDS011;33620;52.340;5.984;2023-11-18T11:05:49;51.10;;;22.98;;
47860;SDS011;33620;52.340;5.984;2023-11-18T11:08:15;46.47;;;22.67;;
47860;SDS011;33620;52.340;5.984;2023-11-18T11:10:41;51.92;;;23.15;;
47860;SDS011;33620;52.340;5.984;2023-11-18T11:13:07;57.05;;;23.80;;
47860;SDS011;33620;52.340;5.984;2023-11-18T11:15:33;49.83;;;22.48;;
47860;SDS011;33620;52.340;5.984;2023-11-18T11:18:05;52.70;;;22.23;;
47860;SDS011;33620;52.340;5.984;2023-11-18T11:20:41;55.33;;;23.00;;
47860;SDS011;33620;52.340;5.984;2023-11-18T11:31:27;49.83;;;20.90;;
47860;SDS011;33620;52.340;5.984;2023-11-18T11:34:08;45.75;;;20.00;;
47860;SDS011;33620;52.340;5.984;2023-11-18T11:36:43;51.85;;;21.05;;
47860;SDS011;33620;52.340;5.984;2023-11-18T11:39:11;44.30;;;20.58;;
47860;SDS011;33620;52.340;5.984;2023-11-18T11:41:44;50.90;;;21.95;;
47860;SDS011;33620;52.340;5.984;2023-11-18T11:44:11;46.10;;;20.17;;
47860;SDS011;33620;52.340;5.984;2023-11-18T11:46:38;45.05;;;22.15;;
47860;SDS011;33620;52.340;5.984;2023-11-18T11:49:07;48.95;;;18.95;;
47860;SDS011;33620;52.340;5.984;2023-11-18T11:51:46;49.65;;;20.58;;
47860;SDS011;33620;52.340;5.984;2023-11-18T11:54:19;45.88;;;20.13;;
47860;SDS011;33620;52.340;5.984;2023-11-18T11:56:48;39.55;;;18.77;;
47860;SDS011;33620;52.340;5.984;2023-11-18T12:02:25;46.08;;;18.55;;
47860;SDS011;33620;52.340;5.984;2023-11-18T12:04:57;50.17;;;21.00;;
47860;SDS011;33620;52.340;5.984;2023-11-18T12:07:26;54.40;;;22.52;;
47860;SDS011;33620;52.340;5.984;2023-11-18T12:09:59;47.90;;;19.45;;
47860;SDS011;33620;52.340;5.984;2023-11-18T12:12:25;48.40;;;19.95;;
47860;SDS011;33620;52.340;5.984;2023-11-18T12:14:52;38.40;;;18.13;;
47860;SDS011;33620;52.340;5.984;2023-11-18T12:17:21;48.92;;;20.98;;
47860;SDS011;33620;52.340;5.984;2023-11-18T12:19:48;48.72;;;19.73;;
47860;SDS011;33620;52.340;5.984;2023-11-18T12:22:20;47.83;;;19.83;;
47860;SDS011;33620;52.340;5.984;2023-11-18T12:30:37;46.85;;;19.42;;
47860;SDS011;33620;52.340;5.984;2023-11-18T12:33:01;39.15;;;18.05;;
47860;SDS011;33620;52.340;5.984;2023-11-18T12:49:22;45.35;;;20.23;;
47860;SDS011;33620;52.340;5.984;2023-11-18T12:51:52;43.60;;;18.52;;
47860;SDS011;33620;52.340;5.984;2023-11-18T12:54:20;52.55;;;19.45;;
47860;SDS011;33620;52.340;5.984;2023-11-18T12:56:52;43.10;;;18.42;;
47860;SDS011;33620;52.340;5.984;2023-11-18T12:59:19;45.10;;;18.85;;
47860;SDS011;33620;52.340;5.984;2023-11-18T13:01:49;41.33;;;17.85;;
47860;SDS011;33620;52.340;5.984;2023-11-18T13:04:21;38.13;;;16.50;;
47860;SDS011;33620;52.340;5.984;2023-11-18T13:06:47;42.72;;;17.77;;
47860;SDS011;33620;52.340;5.984;2023-11-18T13:09:14;36.10;;;16.30;;
47860;SDS011;33620;52.340;5.984;2023-11-18T13:11:50;40.40;;;17.52;;
47860;SDS011;33620;52.340;5.984;2023-11-18T13:14:26;39.47;;;18.15;;
47860;SDS011;33620;52.340;5.984;2023-11-18T13:16:55;38.85;;;17.05;;
47860;SDS011;33620;52.340;5.984;2023-11-18T13:19:27;33.28;;;16.20;;
47860;SDS011;33620;52.340;5.984;2023-11-18T13:21:57;41.38;;;16.48;;
47860;SDS011;33620;52.340;5.984;2023-11-18T13:24:24;44.97;;;17.30;;
47860;SDS011;33620;52.340;5.984;2023-11-18T13:26:51;36.65;;;16.30;;
47860;SDS011;33620;52.340;5.984;2023-11-18T13:29:19;36.33;;;15.75;;
47860;SDS011;33620;52.340;5.984;2023-11-18T13:31:46;40.58;;;17.38;;
47860;SDS011;33620;52.340;5.984;2023-11-18T13:34:13;34.90;;;15.75;;
47860;SDS011;33620;52.340;5.984;2023-11-18T13:36:39;35.10;;;15.38;;
47860;SDS011;33620;52.340;5.984;2023-11-18T13:39:04;40.42;;;16.25;;
47860;SDS011;33620;52.340;5.984;2023-11-18T13:41:32;36.72;;;16.10;;
47860;SDS011;33620;52.340;5.984;2023-11-18T13:43:57;29.95;;;13.90;;
47860;SDS011;33620;52.340;5.984;2023-11-18T13:46:23;35.92;;;16.25;;
47860;SDS011;33620;52.340;5.984;2023-11-18T13:48:49;34.33;;;14.80;;
47860;SDS011;33620;52.340;5.984;2023-11-18T13:51:16;31.08;;;14.05;;
47860;SDS011;33620;52.340;5.984;2023-11-18T13:53:44;32.17;;;14.77;;
47860;SDS011;33620;52.340;5.984;2023-11-18T13:56:11;29.58;;;12.15;;
47860;SDS011;33620;52.340;5.984;2023-11-18T13:58:37;30.70;;;13.43;;
47860;SDS011;33620;52.340;5.984;2023-11-18T14:01:06;33.60;;;14.27;;
47860;SDS011;33620;52.340;5.984;2023-11-18T14:03:33;28.98;;;12.60;;
47860;SDS011;33620;52.340;5.984;2023-11-18T14:06:00;29.92;;;12.65;;
47860;SDS011;33620;52.340;5.984;2023-11-18T14:08:26;27.88;;;11.27;;
47860;SDS011;33620;52.340;5.984;2023-11-18T14:10:52;30.70;;;13.13;;
47860;SDS011;33620;52.340;5.984;2023-11-18T14:13:18;30.27;;;11.48;;
47860;SDS011;33620;52.340;5.984;2023-11-18T14:15:44;31.45;;;13.43;;
47860;SDS011;33620;52.340;5.984;2023-11-18T14:18:10;24.73;;;11.43;;
47860;SDS011;33620;52.340;5.984;2023-11-18T14:20:36;26.27;;;11.88;;
47860;SDS011;33620;52.340;5.984;2023-11-18T14:23:02;27.50;;;11.23;;
47860;SDS011;33620;52.340;5.984;2023-11-18T14:25:31;28.05;;;11.88;;
47860;SDS011;33620;52.340;5.984;2023-11-18T14:27:57;27.90;;;10.75;;
47860;SDS011;33620;52.340;5.984;2023-11-18T14:30:23;26.92;;;10.70;;
47860;SDS011;33620;52.340;5.984;2023-11-18T14:32:51;29.55;;;12.77;;
47860;SDS011;33620;52.340;5.984;2023-11-18T14:35:16;32.22;;;12.80;;
47860;SDS011;33620;52.340;5.984;2023-11-18T14:37:45;26.40;;;11.45;;
47860;SDS011;33620;52.340;5.984;2023-11-18T14:40:14;23.90;;;11.25;;
47860;SDS011;33620;52.340;5.984;2023-11-18T14:42:41;25.60;;;10.27;;
47860;SDS011;33620;52.340;5.984;2023-11-18T14:45:08;23.23;;;10.80;;
47860;SDS011;33620;52.340;5.984;2023-11-18T14:47:34;23.50;;;10.15;;
47860;SDS011;33620;52.340;5.984;2023-11-18T14:50:00;25.85;;;10.63;;
47860;SDS011;33620;52.340;5.984;2023-11-18T14:52:27;24.08;;;9.75;;
47860;SDS011;33620;52.340;5.984;2023-11-18T14:54:53;23.40;;;9.88;;
47860;SDS011;33620;52.340;5.984;2023-11-18T14:57:18;26.63;;;10.60;;